RYR8X LQSA-LIME
Flight info
| Callsign | RYR8X |
|---|---|
| Flight time | N/A |
| Altitude | 38000 |
| Route | BOSNA DCT ELTIB DCT EBITA DCT IPKIS DCT BAXON DCT SUKOM/N0446F370 DCT BOA/N0449F380 DCT OGPUD DCT BETMU DCT OSBUL |
| Aircraft | B38M/M-SDE1FGHILORVWXY/HB1 |
Departure
| Time | 2026-04-21 11:04 |
|---|---|
| Airport | Sarajevo International Airport (LQSA) |
Arrival
| Time | N/A |
|---|---|
| Airport | Il Caravaggio International Airport (LIME) |
| Time | Latitude | Longitude | Altitude | Speed | Heading |
|---|---|---|---|---|---|
| 2026-04-21 10:44 | 43.82540 | 18.33624 | 1688 ft | 0 kts | 27° |
| 2026-04-21 10:57 | 43.82537 | 18.33621 | 1688 ft | 2 kts | 27° |
| 2026-04-21 10:57 | 43.82521 | 18.33609 | 1692 ft | 3 kts | 32° |
| 2026-04-21 10:58 | 43.82504 | 18.33593 | 1690 ft | 3 kts | 41° |
| 2026-04-21 10:58 | 43.82491 | 18.33573 | 1692 ft | 3 kts | 62° |
| 2026-04-21 10:58 | 43.82487 | 18.33551 | 1691 ft | 2 kts | 105° |
| 2026-04-21 10:58 | 43.82489 | 18.33543 | 1690 ft | 1 kts | 117° |
| 2026-04-21 11:00 | 43.82487 | 18.33547 | 1690 ft | 2 kts | 117° |
| 2026-04-21 11:01 | 43.82476 | 18.33577 | 1689 ft | 5 kts | 117° |
| 2026-04-21 11:01 | 43.82453 | 18.33638 | 1692 ft | 9 kts | 117° |
| 2026-04-21 11:01 | 43.82421 | 18.33721 | 1691 ft | 11 kts | 117° |
| 2026-04-21 11:02 | 43.82350 | 18.33914 | 1695 ft | 12 kts | 117° |
| 2026-04-21 11:02 | 43.82313 | 18.34014 | 1699 ft | 12 kts | 117° |
| 2026-04-21 11:02 | 43.82274 | 18.34122 | 1704 ft | 14 kts | 117° |
| 2026-04-21 11:02 | 43.82227 | 18.34250 | 1706 ft | 16 kts | 117° |
| 2026-04-21 11:03 | 43.82170 | 18.34395 | 1710 ft | 18 kts | 118° |
| 2026-04-21 11:03 | 43.82107 | 18.34563 | 1715 ft | 20 kts | 122° |
| 2026-04-21 11:03 | 43.81993 | 18.34621 | 1718 ft | 17 kts | 202° |
| 2026-04-21 11:03 | 43.81953 | 18.34496 | 1716 ft | 17 kts | 294° |
| 2026-04-21 11:04 | 43.82032 | 18.34282 | 1711 ft | 51 kts | 298° |
| 2026-04-21 11:04 | 43.82326 | 18.33500 | 1696 ft | 129 kts | 297° |
| 2026-04-21 11:04 | 43.82827 | 18.32146 | 1832 ft | 177 kts | 300° |
| 2026-04-21 11:04 | 43.83420 | 18.30571 | 2550 ft | 191 kts | 301° |
| 2026-04-21 11:05 | 43.84250 | 18.29050 | 3281 ft | 207 kts | 321° |
| 2026-04-21 11:05 | 43.85546 | 18.28038 | 3897 ft | 229 kts | 344° |
| 2026-04-21 11:05 | 43.87164 | 18.27583 | 4756 ft | 237 kts | 353° |
| 2026-04-21 11:05 | 43.88809 | 18.27275 | 5902 ft | 242 kts | 352° |
| 2026-04-21 11:06 | 43.90498 | 18.26904 | 6869 ft | 248 kts | 351° |
| 2026-04-21 11:06 | 43.92200 | 18.26492 | 7920 ft | 249 kts | 348° |
| 2026-04-21 11:06 | 43.93923 | 18.26051 | 8901 ft | 254 kts | 347° |
| 2026-04-21 11:06 | 43.95691 | 18.25647 | 9818 ft | 264 kts | 351° |
| 2026-04-21 11:07 | 43.97577 | 18.25421 | 10461 ft | 279 kts | 351° |
| 2026-04-21 11:07 | 43.99541 | 18.25172 | 11272 ft | 285 kts | 351° |
| 2026-04-21 11:07 | 44.01566 | 18.24903 | 11889 ft | 301 kts | 351° |
| 2026-04-21 11:07 | 44.03723 | 18.24605 | 12328 ft | 322 kts | 351° |
| 2026-04-21 11:08 | 44.05939 | 18.23926 | 12861 ft | 330 kts | 333° |
| 2026-04-21 11:08 | 44.07836 | 18.22120 | 13518 ft | 335 kts | 313° |
| 2026-04-21 11:08 | 44.09409 | 18.19727 | 14365 ft | 336 kts | 310° |
| 2026-04-21 11:08 | 44.10987 | 18.17308 | 15165 ft | 339 kts | 310° |
| 2026-04-21 11:09 | 44.12563 | 18.14861 | 16061 ft | 339 kts | 309° |
| 2026-04-21 11:09 | 44.14134 | 18.12399 | 16918 ft | 341 kts | 308° |
| 2026-04-21 11:09 | 44.15708 | 18.09918 | 17665 ft | 343 kts | 308° |
| 2026-04-21 11:09 | 44.17292 | 18.07414 | 18449 ft | 346 kts | 307° |
| 2026-04-21 11:10 | 44.18889 | 18.04891 | 19133 ft | 347 kts | 307° |
| 2026-04-21 11:10 | 44.20491 | 18.02353 | 19739 ft | 351 kts | 307° |
| 2026-04-21 11:10 | 44.22110 | 17.99784 | 20360 ft | 354 kts | 307° |
| 2026-04-21 11:10 | 44.23743 | 17.97191 | 20967 ft | 358 kts | 307° |
| 2026-04-21 11:11 | 44.25391 | 17.94573 | 21593 ft | 360 kts | 307° |
| 2026-04-21 11:11 | 44.27052 | 17.91933 | 22167 ft | 365 kts | 307° |
| 2026-04-21 11:11 | 44.28732 | 17.89258 | 22722 ft | 368 kts | 307° |
| 2026-04-21 11:11 | 44.30423 | 17.86564 | 23368 ft | 370 kts | 307° |
| 2026-04-21 11:12 | 44.32121 | 17.83856 | 23904 ft | 373 kts | 307° |
| 2026-04-21 11:12 | 44.33830 | 17.81107 | 24307 ft | 375 kts | 304° |
| 2026-04-21 11:12 | 44.35190 | 17.78089 | 24783 ft | 371 kts | 292° |
| 2026-04-21 11:12 | 44.35946 | 17.74644 | 25185 ft | 374 kts | 279° |
| 2026-04-21 11:13 | 44.36057 | 17.71009 | 25672 ft | 376 kts | 270° |
| 2026-04-21 11:13 | 44.36087 | 17.67342 | 26095 ft | 379 kts | 273° |
| 2026-04-21 11:13 | 44.36167 | 17.63649 | 26540 ft | 382 kts | 273° |
| 2026-04-21 11:13 | 44.36265 | 17.59882 | 26950 ft | 386 kts | 273° |
| 2026-04-21 11:14 | 44.36371 | 17.56162 | 27378 ft | 388 kts | 274° |
| 2026-04-21 11:14 | 44.36484 | 17.52408 | 27777 ft | 392 kts | 274° |
| 2026-04-21 11:14 | 44.36599 | 17.48595 | 28190 ft | 395 kts | 274° |